Cuyahoga County Airport Cleveland US
ICAO: KCGF
IATA: CGF
Category: Medium
Scheduled Services: No

Elevation: 879 ft
TransAlt. 18000 ft.

Airport Communications:
CLEVELAND APP/DEP:125.35
CTAF:118.5
GND/CLNC DEL:121.85
COUNTY TWR:118.5
UNICOM:122.95

KCGF Zoom In..

If Map Doesn't Load, Click Here

Runways:

(A) RW 06 length 5102 ft width 100 ft
---- / hdg 57

(B) RW 24 length 5102 ft width 100 ft
ILS 111.10 / hdg 237

Location; KCGF
Day. 24 / Time. 02.45 Zulu
* Altimeter: 30.22
* Temperature: 15° c. 59°f.
* Wind from: 090° Speed 08 kn.
Dewpoint: 13° c.
Visibility: 10 Statute Miles.
Clouds: Clear (manual report).

KCGF 240245Z 09008KT 10SM SKC 15/13 A3022


Wind From 090°
Speed 08 kn.

 
 
jpsmedia.com for Web Design worldairports.se 2018   terms of use